Time;durP1;ratioP1;P1;durP2;ratioP2;P2;SDS_P1;SDS_P2;PMS_P1;PMS_P2;Temp;Humidity;BMP_temperature;BMP_pressure;BME280_temperature;BME280_humidity;BME280_pressure;Samples;Min_cycle;Max_cycle;Signal;HPM_P1;HPM_P2
2020/12/13 00:00:43;;;;;;;73.40;45.67;;;;;;;;;;4992610;28;20180;-85
2020/12/13 00:03:14;;;;;;;71.10;46.13;;;;;;;;;;4993850;28;20176;-85
2020/12/13 00:05:47;;;;;;;75.87;47.23;;;;;;;;;;4993886;28;20506;-85
2020/12/13 00:08:20;;;;;;;66.30;44.43;;;;;;;;;;4993890;28;20198;-85
2020/12/13 00:10:48;;;;;;;77.17;47.70;;;;;;;;;;4993760;28;20666;-85
2020/12/13 00:13:25;;;;;;;67.90;44.83;;;;;;;;;;4992499;28;20681;-85
2020/12/13 00:15:54;;;;;;;70.53;45.83;;;;;;;;;;4992367;28;20208;-85
2020/12/13 00:18:28;;;;;;;76.20;46.03;;;;;;;;;;4992343;28;20198;-85
2020/12/13 00:21:00;;;;;;;68.97;44.90;;;;;;;;;;4993958;28;20280;-85
2020/12/13 00:23:35;;;;;;;79.47;47.43;;;;;;;;;;4993816;28;20639;-85
2020/12/13 00:26:08;;;;;;;75.33;45.50;;;;;;;;;;4992463;28;20192;-85
2020/12/13 00:28:35;;;;;;;69.57;43.57;;;;;;;;;;4993590;28;20735;-85
2020/12/13 00:31:03;;;;;;;70.67;43.57;;;;;;;;;;4994071;28;20180;-85
2020/12/13 00:33:34;;;;;;;75.93;45.17;;;;;;;;;;4993728;28;20600;-85
2020/12/13 00:36:01;;;;;;;70.67;44.17;;;;;;;;;;4993676;28;20174;-84
2020/12/13 00:38:31;;;;;;;74.63;44.97;;;;;;;;;;4993830;28;20613;-85
2020/12/13 00:41:01;;;;;;;78.53;46.60;;;;;;;;;;4995892;28;20666;-85
2020/12/13 00:43:28;;;;;;;77.67;46.33;;;;;;;;;;4996190;28;20733;-85
2020/12/13 00:45:56;;;;;;;79.40;47.07;;;;;;;;;;4996206;28;20188;-85
2020/12/13 00:48:23;;;;;;;79.77;46.13;;;;;;;;;;4996003;28;20666;-85
2020/12/13 00:50:52;;;;;;;75.50;46.93;;;;;;;;;;4996012;28;20178;-85
2020/12/13 00:53:19;;;;;;;79.80;47.20;;;;;;;;;;4997254;28;20646;-85
2020/12/13 00:55:55;;;;;;;81.37;45.43;;;;;;;;;;4995991;28;20297;-85
2020/12/13 00:58:21;;;;;;;70.43;41.97;;;;;;;;;;4997325;28;20202;-85
2020/12/13 01:00:51;;;;;;;79.70;46.20;;;;;;;;;;4997091;28;20181;-85
2020/12/13 01:03:18;;;;;;;77.00;43.37;;;;;;;;;;4995790;28;20180;-85
2020/12/13 01:05:50;;;;;;;73.60;45.50;;;;;;;;;;4996206;28;20552;-85
2020/12/13 01:08:21;;;;;;;79.13;44.20;;;;;;;;;;4996978;28;20211;-84
2020/12/13 01:10:51;;;;;;;82.40;47.70;;;;;;;;;;4995776;28;20243;-85
2020/12/13 01:13:24;;;;;;;81.20;43.77;;;;;;;;;;4996916;28;20259;-84
2020/12/13 01:15:54;;;;;;;82.20;45.87;;;;;;;;;;4997073;28;20671;-85
2020/12/13 01:18:29;;;;;;;77.10;44.57;;;;;;;;;;4996334;28;20291;-85
2020/12/13 01:21:01;;;;;;;71.73;44.90;;;;;;;;;;4997280;28;20560;-84
2020/12/13 01:23:37;;;;;;;76.00;44.53;;;;;;;;;;4996787;28;20213;-85
2020/12/13 01:26:10;;;;;;;77.10;44.03;;;;;;;;;;4995556;28;20193;-85
2020/12/13 01:28:41;;;;;;;79.60;45.57;;;;;;;;;;4995302;28;20226;-85
2020/12/13 01:31:15;;;;;;;75.93;43.00;;;;;;;;;;4995441;28;20239;-85
2020/12/13 01:33:47;;;;;;;76.70;43.67;;;;;;;;;;4996871;28;20164;-85
2020/12/13 01:36:21;;;;;;;80.63;45.60;;;;;;;;;;4995334;28;20181;-84
2020/12/13 01:38:52;;;;;;;88.63;46.13;;;;;;;;;;4995259;28;20237;-84
2020/12/13 01:41:24;;;;;;;72.90;43.13;;;;;;;;;;4996850;28;20185;-84
2020/12/13 01:44:06;;;;;;;87.33;46.97;;;;;;;;;;4996396;28;20260;-85
2020/12/13 01:46:43;;;;;;;72.60;42.53;;;;;;;;;;4995922;28;20181;-85
2020/12/13 01:49:15;;;;;;;79.20;45.90;;;;;;;;;;4995205;28;20197;-84
2020/12/13 01:54:24;;;;;;;86.80;46.57;;;;;;;;;;4996240;28;20209;-86
2020/12/13 01:56:53;;;;;;;74.77;43.73;;;;;;;;;;4994865;28;20178;-85
2020/12/13 01:59:25;;;;;;;80.13;44.80;;;;;;;;;;4994754;28;20565;-85
2020/12/13 02:02:05;;;;;;;75.87;43.80;;;;;;;;;;4994739;28;20224;-85
2020/12/13 02:04:38;;;;;;;79.73;45.13;;;;;;;;;;4994691;28;20642;-86
2020/12/13 02:07:10;;;;;;;79.60;45.00;;;;;;;;;;4994528;28;20186;-85
2020/12/13 02:09:43;;;;;;;87.27;47.47;;;;;;;;;;4995768;28;20185;-85
2020/12/13 02:12:15;;;;;;;73.60;43.90;;;;;;;;;;4994687;28;20680;-85
2020/12/13 02:14:45;;;;;;;76.90;45.33;;;;;;;;;;4994631;28;20212;-85
2020/12/13 02:17:16;;;;;;;74.30;45.27;;;;;;;;;;4995765;28;20170;-85
2020/12/13 02:19:46;;;;;;;83.07;46.63;;;;;;;;;;4994503;28;20182;-85
2020/12/13 02:22:21;;;;;;;86.93;48.03;;;;;;;;;;4995648;28;20575;-85
2020/12/13 02:24:50;;;;;;;80.10;45.53;;;;;;;;;;4994406;28;20219;-85
2020/12/13 02:27:26;;;;;;;85.00;46.80;;;;;;;;;;4995562;28;20272;-85
2020/12/13 02:29:53;;;;;;;79.87;45.33;;;;;;;;;;4995708;28;20185;-85
2020/12/13 02:32:24;;;;;;;81.50;44.80;;;;;;;;;;4994278;28;20178;-85
2020/12/13 02:34:57;;;;;;;77.63;43.87;;;;;;;;;;4995339;28;20212;-85
2020/12/13 02:37:23;;;;;;;81.93;43.97;;;;;;;;;;4994028;28;20620;-85
2020/12/13 02:40:01;;;;;;;70.10;44.53;;;;;;;;;;4994159;28;20205;-85
2020/12/13 02:42:34;;;;;;;76.03;44.93;;;;;;;;;;4993991;28;20183;-85
2020/12/13 02:45:05;;;;;;;75.73;44.30;;;;;;;;;;4995494;28;20167;-85
2020/12/13 02:47:33;;;;;;;81.87;42.23;;;;;;;;;;4995152;28;20232;-85
2020/12/13 02:50:01;;;;;;;80.40;44.07;;;;;;;;;;4995503;28;20603;-85
2020/12/13 02:52:32;;;;;;;74.80;45.03;;;;;;;;;;4993789;28;20239;-85
2020/12/13 02:55:03;;;;;;;83.00;45.07;;;;;;;;;;4993698;28;20240;-85
2020/12/13 02:57:29;;;;;;;79.97;45.30;;;;;;;;;;4993660;28;20208;-85
2020/12/13 02:59:57;;;;;;;80.57;45.07;;;;;;;;;;4994950;28;20195;-85
2020/12/13 03:02:29;;;;;;;75.27;42.07;;;;;;;;;;4994835;28;20204;-85
2020/12/13 03:05:05;;;;;;;80.13;43.57;;;;;;;;;;4994826;28;20190;-85
2020/12/13 03:07:39;;;;;;;73.10;43.57;;;;;;;;;;4994827;28;20205;-85
2020/12/13 03:10:13;;;;;;;83.63;43.17;;;;;;;;;;4994847;28;20185;-85
2020/12/13 03:12:39;;;;;;;77.10;42.37;;;;;;;;;;4994725;28;20184;-85
2020/12/13 03:15:11;;;;;;;78.40;43.00;;;;;;;;;;4994798;28;20210;-85
2020/12/13 03:17:41;;;;;;;69.30;41.17;;;;;;;;;;4994646;28;20723;-85
2020/12/13 03:20:10;;;;;;;70.57;41.97;;;;;;;;;;4994480;28;20174;-85
2020/12/13 03:22:43;;;;;;;72.87;42.03;;;;;;;;;;4994875;28;20212;-85
2020/12/13 03:25:17;;;;;;;74.57;42.97;;;;;;;;;;4993332;28;20177;-85
2020/12/13 03:27:50;;;;;;;72.50;41.63;;;;;;;;;;4994248;28;20217;-85
2020/12/13 03:30:21;;;;;;;77.60;41.47;;;;;;;;;;4993198;28;20192;-85
2020/12/13 03:32:55;;;;;;;72.33;42.53;;;;;;;;;;4993135;28;20186;-85
2020/12/13 03:35:26;;;;;;;70.23;41.73;;;;;;;;;;4994460;28;20194;-85
2020/12/13 03:37:56;;;;;;;72.13;41.87;;;;;;;;;;4993008;28;20198;-85
2020/12/13 03:40:27;;;;;;;72.50;41.73;;;;;;;;;;4993117;28;20177;-85
2020/12/13 03:42:59;;;;;;;73.07;42.90;;;;;;;;;;4994456;28;20184;-85
2020/12/13 03:45:33;;;;;;;75.67;41.80;;;;;;;;;;4992916;28;20214;-85
2020/12/13 03:48:01;;;;;;;75.73;43.33;;;;;;;;;;4993987;28;20204;-85
2020/12/13 03:50:38;;;;;;;70.23;43.07;;;;;;;;;;4992831;28;20580;-85
2020/12/13 03:53:11;;;;;;;67.87;38.80;;;;;;;;;;4994057;28;20199;-85
2020/12/13 03:55:41;;;;;;;74.43;41.27;;;;;;;;;;4993900;28;20208;-85
2020/12/13 03:58:13;;;;;;;64.50;38.90;;;;;;;;;;4992698;28;20237;-85
2020/12/13 04:00:46;;;;;;;67.83;38.50;;;;;;;;;;4992691;28;20176;-85
2020/12/13 04:03:17;;;;;;;68.37;43.20;;;;;;;;;;4994319;28;20166;-85
2020/12/13 04:05:50;;;;;;;77.97;40.23;;;;;;;;;;4994120;28;20562;-85
2020/12/13 04:08:21;;;;;;;81.00;42.23;;;;;;;;;;4993835;28;20292;-85
2020/12/13 04:10:51;;;;;;;74.47;41.00;;;;;;;;;;4992567;28;20666;-85
2020/12/13 04:13:21;;;;;;;66.67;38.23;;;;;;;;;;4993713;28;20192;-85
2020/12/13 04:15:55;;;;;;;77.03;39.40;;;;;;;;;;4993676;28;20567;-85
2020/12/13 04:18:28;;;;;;;70.23;38.60;;;;;;;;;;4992880;28;20196;-85
2020/12/13 04:21:01;;;;;;;70.70;39.13;;;;;;;;;;4993887;28;20181;-85
2020/12/13 04:23:33;;;;;;;67.13;39.87;;;;;;;;;;4993799;28;20179;-85
2020/12/13 04:26:11;;;;;;;67.67;39.83;;;;;;;;;;4993781;28;20203;-85
2020/12/13 04:28:43;;;;;;;71.77;39.53;;;;;;;;;;4993701;28;20605;-85
2020/12/13 04:31:09;;;;;;;77.77;39.97;;;;;;;;;;4993744;28;20212;-85
2020/12/13 04:33:35;;;;;;;75.80;41.43;;;;;;;;;;4993576;28;20189;-85
2020/12/13 04:36:08;;;;;;;77.50;41.43;;;;;;;;;;4993752;28;20299;-85
2020/12/13 04:38:39;;;;;;;77.53;39.70;;;;;;;;;;4993455;28;20193;-85
2020/12/13 04:41:07;;;;;;;70.30;38.30;;;;;;;;;;4992324;28;20650;-85
2020/12/13 04:43:38;;;;;;;71.50;38.70;;;;;;;;;;4993530;28;20179;-85
2020/12/13 04:46:11;;;;;;;72.97;39.90;;;;;;;;;;4992175;28;20177;-85
2020/12/13 04:48:43;;;;;;;76.27;40.23;;;;;;;;;;4993712;28;20190;-85
2020/12/13 04:51:09;;;;;;;72.83;38.20;;;;;;;;;;4992329;28;20185;-85
2020/12/13 04:53:38;;;;;;;73.47;38.93;;;;;;;;;;4992159;28;20668;-85
2020/12/13 04:56:11;;;;;;;74.93;40.40;;;;;;;;;;4992178;28;20232;-85
2020/12/13 04:58:43;;;;;;;78.80;39.73;;;;;;;;;;4992212;28;20567;-85
2020/12/13 05:01:13;;;;;;;73.40;39.83;;;;;;;;;;4992249;28;20182;-85
2020/12/13 05:03:40;;;;;;;73.80;40.53;;;;;;;;;;4993633;28;20231;-85
2020/12/13 05:06:10;;;;;;;73.97;41.13;;;;;;;;;;4992214;28;20190;-85
2020/12/13 05:08:41;;;;;;;69.23;40.03;;;;;;;;;;4993215;28;20201;-85
2020/12/13 05:11:16;;;;;;;69.37;39.30;;;;;;;;;;4993627;28;20158;-85
2020/12/13 05:13:46;;;;;;;78.20;42.03;;;;;;;;;;4993905;28;20165;-85
2020/12/13 05:16:21;;;;;;;73.47;38.70;;;;;;;;;;4993580;28;20180;-85
2020/12/13 05:18:48;;;;;;;75.47;39.43;;;;;;;;;;4993302;28;20669;-85
2020/12/13 05:21:30;;;;;;;70.53;41.03;;;;;;;;;;4993241;28;20174;-85
2020/12/13 05:24:00;;;;;;;75.17;39.77;;;;;;;;;;4993458;28;20209;-85
2020/12/13 05:26:36;;;;;;;76.20;39.40;;;;;;;;;;4994477;28;20236;-85
2020/12/13 05:29:08;;;;;;;71.43;39.07;;;;;;;;;;4996649;28;20216;-85
2020/12/13 05:31:43;;;;;;;75.17;37.87;;;;;;;;;;4995383;28;20267;-85
2020/12/13 05:34:20;;;;;;;86.73;42.47;;;;;;;;;;4996417;28;20201;-85
2020/12/13 05:36:55;;;;;;;76.27;38.97;;;;;;;;;;4995292;28;20707;-85
2020/12/13 05:39:26;;;;;;;72.80;37.43;;;;;;;;;;4996639;28;20224;-85
2020/12/13 05:41:56;;;;;;;63.47;36.37;;;;;;;;;;4996769;28;20178;-85
2020/12/13 05:52:25;;;;;;;73.37;39.07;;;;;;;;;;4996379;28;20239;-85
2020/12/13 05:54:52;;;;;;;76.00;40.07;;;;;;;;;;4996411;28;20680;-85
2020/12/13 05:57:22;;;;;;;62.20;36.80;;;;;;;;;;4994889;28;20228;-85
2020/12/13 05:59:53;;;;;;;73.00;37.10;;;;;;;;;;4996163;28;20181;-85
2020/12/13 06:02:25;;;;;;;70.83;37.67;;;;;;;;;;4994847;28;20202;-85
2020/12/13 06:04:55;;;;;;;63.43;37.67;;;;;;;;;;4994841;28;20649;-85
2020/12/13 06:07:32;;;;;;;67.57;35.50;;;;;;;;;;4994860;28;20212;-85
2020/12/13 06:10:05;;;;;;;68.17;37.70;;;;;;;;;;4996326;28;20551;-85
2020/12/13 06:12:40;;;;;;;69.07;37.37;;;;;;;;;;4994589;28;20275;-85
2020/12/13 06:15:13;;;;;;;64.97;36.50;;;;;;;;;;4995890;28;20215;-85
2020/12/13 06:17:47;;;;;;;70.57;38.50;;;;;;;;;;4994724;28;20287;-85
2020/12/13 06:20:19;;;;;;;71.17;39.20;;;;;;;;;;4994728;28;20186;-85
2020/12/13 06:22:56;;;;;;;63.97;37.50;;;;;;;;;;4994531;28;20185;-85
2020/12/13 06:25:30;;;;;;;67.27;37.60;;;;;;;;;;4996125;28;20605;-85
2020/12/13 06:28:00;;;;;;;64.97;36.70;;;;;;;;;;5085875;23;20206;-83
2020/12/13 06:30:35;;;;;;;67.03;36.80;;;;;;;;;;4996118;28;20267;-83
2020/12/13 06:33:04;;;;;;;63.27;36.67;;;;;;;;;;4996273;28;20173;-83
2020/12/13 06:35:36;;;;;;;62.73;37.73;;;;;;;;;;4994740;28;20241;-83
2020/12/13 06:38:26;;;;;;;60.00;34.97;;;;;;;;;;4995435;28;20260;-84
2020/12/13 06:41:07;;;;;;;58.37;33.53;;;;;;;;;;4996126;28;20181;-83
2020/12/13 06:43:43;;;;;;;61.70;35.07;;;;;;;;;;4996130;28;20275;-83
2020/12/13 06:46:12;;;;;;;55.77;35.37;;;;;;;;;;4996022;28;20203;-83
2020/12/13 06:48:45;;;;;;;57.17;34.17;;;;;;;;;;4995664;28;20190;-83
2020/12/13 06:51:11;;;;;;;61.50;34.87;;;;;;;;;;4994317;28;20175;-83
2020/12/13 06:53:41;;;;;;;58.20;34.57;;;;;;;;;;4996548;28;20183;-83
2020/12/13 06:56:11;;;;;;;59.30;36.73;;;;;;;;;;4994411;28;20575;-83
2020/12/13 06:58:44;;;;;;;56.80;34.03;;;;;;;;;;4994409;28;20201;-83
2020/12/13 07:01:17;;;;;;;58.23;34.10;;;;;;;;;;4995741;28;20657;-83
2020/12/13 07:03:47;;;;;;;59.50;34.90;;;;;;;;;;4995782;28;20272;-83
2020/12/13 07:06:21;;;;;;;56.20;33.87;;;;;;;;;;4995890;28;20180;-83
2020/12/13 07:08:54;;;;;;;55.00;33.17;;;;;;;;;;4995503;28;20289;-83
2020/12/13 07:11:30;;;;;;;57.13;34.40;;;;;;;;;;4996068;28;20164;-83
2020/12/13 07:14:11;;;;;;;55.03;34.27;;;;;;;;;;4993918;28;20189;-83
2020/12/13 07:16:44;;;;;;;55.57;35.13;;;;;;;;;;4994039;28;20176;-83
2020/12/13 07:19:13;;;;;;;59.97;35.90;;;;;;;;;;4995223;28;20591;-83
2020/12/13 07:21:47;;;;;;;61.37;36.53;;;;;;;;;;4995261;28;20711;-83
2020/12/13 07:24:16;;;;;;;60.83;37.30;;;;;;;;;;4995518;28;20184;-83
2020/12/13 07:26:49;;;;;;;60.70;36.23;;;;;;;;;;4995301;28;20185;-83
2020/12/13 07:29:24;;;;;;;59.17;36.47;;;;;;;;;;4993805;28;20628;-83
2020/12/13 07:31:53;;;;;;;54.93;35.67;;;;;;;;;;4993749;28;20184;-83
2020/12/13 07:34:25;;;;;;;62.53;36.67;;;;;;;;;;4994886;28;20196;-83
2020/12/13 07:36:59;;;;;;;57.30;36.80;;;;;;;;;;4994966;28;20169;-84
2020/12/13 07:39:31;;;;;;;59.47;37.03;;;;;;;;;;4993670;28;20198;-83
2020/12/13 07:42:07;;;;;;;58.67;35.80;;;;;;;;;;4994086;28;20178;-83
2020/12/13 07:44:39;;;;;;;65.97;35.83;;;;;;;;;;4995031;28;20196;-83
2020/12/13 07:47:11;;;;;;;67.23;38.30;;;;;;;;;;4993321;28;20650;-83
2020/12/13 07:49:42;;;;;;;57.87;36.57;;;;;;;;;;4992642;28;20201;-84
2020/12/13 07:52:16;;;;;;;62.93;37.53;;;;;;;;;;4994945;28;20169;-83
2020/12/13 07:54:42;;;;;;;60.17;35.43;;;;;;;;;;4993735;28;20199;-84
2020/12/13 07:57:17;;;;;;;63.53;36.83;;;;;;;;;;4994086;28;20183;-83
2020/12/13 07:59:50;;;;;;;61.47;36.70;;;;;;;;;;4994321;28;20194;-83
2020/12/13 08:02:22;;;;;;;60.67;37.87;;;;;;;;;;4994420;28;20181;-83
2020/12/13 08:04:55;;;;;;;60.63;37.70;;;;;;;;;;4995021;28;20177;-83
2020/12/13 08:07:29;;;;;;;59.03;32.67;;;;;;;;;;4994436;28;20191;-83
2020/12/13 08:10:01;;;;;;;65.80;38.30;;;;;;;;;;4994489;28;20319;-83
2020/12/13 08:12:34;;;;;;;67.50;36.60;;;;;;;;;;4994368;28;20299;-83
2020/12/13 08:15:07;;;;;;;67.13;38.83;;;;;;;;;;4993023;28;20578;-83
2020/12/13 08:17:34;;;;;;;66.23;37.00;;;;;;;;;;4994617;28;20518;-83
2020/12/13 08:20:05;;;;;;;77.73;38.93;;;;;;;;;;4994726;28;20253;-84
2020/12/13 08:22:41;;;;;;;69.23;37.87;;;;;;;;;;4993003;28;20173;-83
2020/12/13 08:25:13;;;;;;;63.63;36.23;;;;;;;;;;4994785;28;20267;-83
2020/12/13 08:27:46;;;;;;;59.13;36.50;;;;;;;;;;4994281;28;20673;-83
2020/12/13 08:30:13;;;;;;;70.80;36.00;;;;;;;;;;4993495;28;20181;-84
2020/12/13 08:32:47;;;;;;;74.20;39.07;;;;;;;;;;4995212;28;20185;-83
2020/12/13 08:35:20;;;;;;;75.63;39.37;;;;;;;;;;4993995;28;20203;-84
2020/12/13 08:37:58;;;;;;;77.50;38.73;;;;;;;;;;4992704;28;20176;-83
2020/12/13 08:40:41;;;;;;;74.40;38.53;;;;;;;;;;4992749;28;20165;-83
2020/12/13 08:43:17;;;;;;;68.00;38.00;;;;;;;;;;4992852;28;20237;-83
2020/12/13 08:45:51;;;;;;;71.17;38.73;;;;;;;;;;4992925;28;20169;-83
2020/12/13 08:48:27;;;;;;;78.60;41.30;;;;;;;;;;4993788;28;20201;-83
2020/12/13 08:51:16;;;;;;;75.60;40.10;;;;;;;;;;4992725;28;20172;-83
2020/12/13 08:53:46;;;;;;;75.63;40.33;;;;;;;;;;4994643;28;20169;-83
2020/12/13 08:56:17;;;;;;;81.33;40.10;;;;;;;;;;4994563;28;20768;-83
2020/12/13 08:58:58;;;;;;;81.60;41.70;;;;;;;;;;4993883;28;20677;-83
2020/12/13 09:01:33;;;;;;;75.17;40.43;;;;;;;;;;4996738;28;20169;-83
2020/12/13 09:04:05;;;;;;;75.23;41.77;;;;;;;;;;4996326;28;20176;-83
2020/12/13 09:06:37;;;;;;;73.77;40.60;;;;;;;;;;4996342;28;20219;-83
2020/12/13 09:09:10;;;;;;;69.57;40.00;;;;;;;;;;4996015;28;20204;-83
2020/12/13 09:11:42;;;;;;;87.23;42.83;;;;;;;;;;4998549;28;20211;-83
2020/12/13 09:14:13;;;;;;;85.00;41.53;;;;;;;;;;4999973;28;20184;-83
2020/12/13 09:16:43;;;;;;;80.13;41.37;;;;;;;;;;4998058;28;20171;-83
2020/12/13 09:19:13;;;;;;;77.80;39.43;;;;;;;;;;4998033;28;20194;-83
2020/12/13 09:21:44;;;;;;;84.97;41.77;;;;;;;;;;4996396;28;20178;-83
2020/12/13 09:24:11;;;;;;;78.53;41.90;;;;;;;;;;4997909;28;20264;-83
2020/12/13 09:26:38;;;;;;;75.00;40.70;;;;;;;;;;4998947;28;20211;-83
2020/12/13 09:29:05;;;;;;;84.67;43.13;;;;;;;;;;4997305;28;20726;-83
2020/12/13 09:31:31;;;;;;;78.67;41.20;;;;;;;;;;4998429;28;20193;-83
2020/12/13 09:34:00;;;;;;;89.43;42.50;;;;;;;;;;4997596;28;20616;-83
2020/12/13 09:36:27;;;;;;;80.80;42.70;;;;;;;;;;4997364;28;20584;-83
2020/12/13 09:38:58;;;;;;;85.60;43.43;;;;;;;;;;4996950;28;20683;-83
2020/12/13 09:41:26;;;;;;;82.00;42.27;;;;;;;;;;4997226;28;20178;-83
2020/12/13 09:43:59;;;;;;;83.30;42.80;;;;;;;;;;4996967;28;20178;-83
2020/12/13 09:46:31;;;;;;;87.00;44.57;;;;;;;;;;4995825;28;20175;-83
2020/12/13 09:49:01;;;;;;;84.70;43.73;;;;;;;;;;4997031;28;20194;-83
2020/12/13 09:51:34;;;;;;;91.53;46.37;;;;;;;;;;4995672;28;20166;-83
2020/12/13 09:54:09;;;;;;;91.63;45.47;;;;;;;;;;4997543;28;20169;-83
2020/12/13 09:56:36;;;;;;;85.90;45.43;;;;;;;;;;4998809;28;20178;-83
2020/12/13 09:59:03;;;;;;;87.47;44.63;;;;;;;;;;4997685;28;20626;-83
2020/12/13 10:01:29;;;;;;;89.17;44.07;;;;;;;;;;4998595;28;20177;-83
2020/12/13 10:04:00;;;;;;;81.10;43.30;;;;;;;;;;4997723;28;20181;-83
2020/12/13 10:06:53;;;;;;;83.63;44.17;;;;;;;;;;4997762;28;20191;-82
2020/12/13 10:09:24;;;;;;;76.93;43.17;;;;;;;;;;4996262;28;20197;-83
2020/12/13 10:11:54;;;;;;;86.70;42.77;;;;;;;;;;4996908;28;20169;-83
2020/12/13 10:14:22;;;;;;;91.03;42.20;;;;;;;;;;4997593;28;20252;-82
2020/12/13 10:16:54;;;;;;;97.50;47.80;;;;;;;;;;4996227;28;20681;-82
2020/12/13 10:19:20;;;;;;;85.40;44.17;;;;;;;;;;4999588;28;20193;-82
2020/12/13 10:21:50;;;;;;;83.93;41.67;;;;;;;;;;4997011;28;20197;-83
2020/12/13 10:24:16;;;;;;;98.13;46.23;;;;;;;;;;4997765;28;20178;-83
2020/12/13 10:26:47;;;;;;;96.93;42.40;;;;;;;;;;4997817;28;20178;-82
2020/12/13 10:29:15;;;;;;;95.77;44.10;;;;;;;;;;4996854;28;20587;-82
2020/12/13 10:31:43;;;;;;;100.63;46.73;;;;;;;;;;4997059;28;20188;-82
2020/12/13 10:34:16;;;;;;;91.23;43.97;;;;;;;;;;4996601;28;20180;-82
2020/12/13 10:36:49;;;;;;;98.00;46.47;;;;;;;;;;4994611;28;20192;-82
2020/12/13 10:39:22;;;;;;;103.50;48.80;;;;;;;;;;4994459;28;20196;-83
2020/12/13 10:41:55;;;;;;;96.57;44.63;;;;;;;;;;4995982;28;20176;-83
2020/12/13 10:44:25;;;;;;;97.80;46.47;;;;;;;;;;4996116;28;20178;-83
2020/12/13 10:46:53;;;;;;;103.47;45.00;;;;;;;;;;4994346;28;20525;-82
2020/12/13 10:49:25;;;;;;;87.93;43.73;;;;;;;;;;4994311;28;20229;-82
2020/12/13 10:51:56;;;;;;;108.07;47.43;;;;;;;;;;4995354;28;20550;-83
2020/12/13 10:54:29;;;;;;;94.17;46.40;;;;;;;;;;4995429;28;20194;-83
2020/12/13 10:57:01;;;;;;;98.73;46.97;;;;;;;;;;4995380;28;20224;-83
2020/12/13 10:59:31;;;;;;;94.70;46.40;;;;;;;;;;4994057;28;20699;-83
2020/12/13 11:02:01;;;;;;;90.77;44.90;;;;;;;;;;4995899;28;20560;-82
2020/12/13 11:04:36;;;;;;;102.73;47.70;;;;;;;;;;4994552;28;20182;-82
2020/12/13 11:07:08;;;;;;;96.20;47.70;;;;;;;;;;4996007;28;20547;-82
2020/12/13 11:09:39;;;;;;;88.60;45.17;;;;;;;;;;4995253;28;20190;-83
2020/12/13 11:12:11;;;;;;;101.47;47.60;;;;;;;;;;4994950;28;20260;-83
2020/12/13 11:14:43;;;;;;;98.40;47.87;;;;;;;;;;4995268;28;20674;-83
2020/12/13 11:17:16;;;;;;;100.40;47.87;;;;;;;;;;4995043;28;20170;-82
2020/12/13 11:19:47;;;;;;;102.27;49.57;;;;;;;;;;4995253;28;20194;-83
2020/12/13 11:22:17;;;;;;;87.77;46.50;;;;;;;;;;4995762;28;20182;-83
2020/12/13 11:24:45;;;;;;;106.33;48.70;;;;;;;;;;4995529;28;20206;-84
2020/12/13 11:27:14;;;;;;;104.10;49.93;;;;;;;;;;4995988;28;20182;-84
2020/12/13 11:29:41;;;;;;;105.93;48.50;;;;;;;;;;4995244;28;20280;-83
2020/12/13 11:32:13;;;;;;;100.47;47.90;;;;;;;;;;4994226;28;20189;-83
2020/12/13 11:34:46;;;;;;;96.00;48.90;;;;;;;;;;4994932;28;20217;-83
2020/12/13 11:37:16;;;;;;;90.83;46.30;;;;;;;;;;4995312;28;20174;-83
2020/12/13 11:39:44;;;;;;;87.47;46.13;;;;;;;;;;4993497;28;20701;-83
2020/12/13 11:42:15;;;;;;;88.80;47.23;;;;;;;;;;4995788;28;20607;-83
2020/12/13 11:44:44;;;;;;;82.03;46.50;;;;;;;;;;4994729;28;20654;-83
2020/12/13 11:47:13;;;;;;;83.67;44.97;;;;;;;;;;4993509;28;20186;-83
2020/12/13 11:49:40;;;;;;;85.17;47.40;;;;;;;;;;4993084;28;20209;-84
2020/12/13 11:52:11;;;;;;;94.77;49.37;;;;;;;;;;4994468;28;20189;-83
2020/12/13 11:54:45;;;;;;;90.37;47.10;;;;;;;;;;4994833;28;20233;-83
2020/12/13 11:57:15;;;;;;;84.70;46.87;;;;;;;;;;4994903;28;20252;-83
2020/12/13 11:59:44;;;;;;;89.90;47.80;;;;;;;;;;4993482;28;20198;-83
2020/12/13 12:02:12;;;;;;;90.93;47.13;;;;;;;;;;4993194;28;20658;-83
2020/12/13 12:04:41;;;;;;;88.60;46.07;;;;;;;;;;4994866;28;20557;-82
2020/12/13 12:07:11;;;;;;;83.40;45.97;;;;;;;;;;4994418;28;20178;-82
2020/12/13 12:09:40;;;;;;;89.37;48.27;;;;;;;;;;4995077;28;20201;-83
2020/12/13 12:12:13;;;;;;;99.50;48.80;;;;;;;;;;4993062;28;20535;-83
2020/12/13 12:14:40;;;;;;;90.10;47.07;;;;;;;;;;4994509;28;20216;-82
2020/12/13 12:17:10;;;;;;;86.47;46.77;;;;;;;;;;4995373;28;20170;-83
2020/12/13 12:19:39;;;;;;;86.67;48.37;;;;;;;;;;4995343;28;20202;-83
2020/12/13 12:22:11;;;;;;;88.67;45.87;;;;;;;;;;4993422;28;20209;-83
2020/12/13 12:24:41;;;;;;;86.93;47.90;;;;;;;;;;4995930;28;20166;-83
2020/12/13 12:27:08;;;;;;;87.07;47.27;;;;;;;;;;4996016;28;20198;-83
2020/12/13 12:29:46;;;;;;;91.47;47.27;;;;;;;;;;4995123;28;20682;-83
2020/12/13 12:32:17;;;;;;;95.57;50.43;;;;;;;;;;5084788;23;20233;-86
2020/12/13 12:34:48;;;;;;;90.87;48.47;;;;;;;;;;4993321;28;20574;-87
2020/12/13 12:37:25;;;;;;;87.43;49.17;;;;;;;;;;4996906;28;20192;-87
2020/12/13 12:39:58;;;;;;;89.40;48.27;;;;;;;;;;4996768;28;20585;-86
2020/12/13 12:42:31;;;;;;;96.17;50.43;;;;;;;;;;4998261;28;20198;-87
2020/12/13 12:45:05;;;;;;;103.60;48.47;;;;;;;;;;4998476;28;20232;-87
2020/12/13 12:47:31;;;;;;;91.50;47.33;;;;;;;;;;4998025;28;20651;-87
2020/12/13 12:49:58;;;;;;;89.40;48.33;;;;;;;;;;4997988;28;20563;-86
2020/12/13 12:52:30;;;;;;;96.93;48.30;;;;;;;;;;4996894;28;20255;-87
2020/12/13 12:54:59;;;;;;;86.10;47.40;;;;;;;;;;4996461;28;20198;-87
2020/12/13 12:57:31;;;;;;;97.40;47.23;;;;;;;;;;4996585;28;20178;-87
2020/12/13 13:00:26;;;;;;;99.80;48.73;;;;;;;;;;4996601;28;20167;-87
2020/12/13 13:02:55;;;;;;;97.70;46.10;;;;;;;;;;4997564;28;20174;-87
2020/12/13 13:08:18;;;;;;;97.37;47.37;;;;;;;;;;4998272;28;20174;-87
2020/12/13 13:10:51;;;;;;;98.27;47.57;;;;;;;;;;4997202;28;20205;-87
2020/12/13 13:13:24;;;;;;;111.30;48.30;;;;;;;;;;4996408;28;20181;-87
2020/12/13 13:15:56;;;;;;;96.93;46.80;;;;;;;;;;4996293;28;20198;-86
2020/12/13 13:18:32;;;;;;;103.30;47.20;;;;;;;;;;4996583;28;20201;-87
2020/12/13 13:21:05;;;;;;;104.63;47.63;;;;;;;;;;4996028;28;20353;-87
2020/12/13 13:23:39;;;;;;;102.17;48.33;;;;;;;;;;4997672;28;20239;-87
2020/12/13 13:26:13;;;;;;;111.87;48.30;;;;;;;;;;4996084;28;20201;-87
2020/12/13 13:28:46;;;;;;;96.77;45.63;;;;;;;;;;4997294;28;20704;-87
2020/12/13 13:31:15;;;;;;;87.60;46.20;;;;;;;;;;4995780;28;20213;-86
2020/12/13 13:33:46;;;;;;;91.30;48.20;;;;;;;;;;4997530;28;20197;-87
2020/12/13 13:36:17;;;;;;;96.07;44.57;;;;;;;;;;4996694;28;20190;-87
2020/12/13 13:38:49;;;;;;;96.70;47.07;;;;;;;;;;4995710;28;20170;-87
2020/12/13 13:41:19;;;;;;;99.70;48.07;;;;;;;;;;4996965;28;20273;-87
2020/12/13 13:43:48;;;;;;;95.30;47.87;;;;;;;;;;4995346;28;20268;-87
2020/12/13 13:51:40;;;;;;;108.10;47.67;;;;;;;;;;4996569;28;20576;-87
2020/12/13 13:54:09;;;;;;;90.27;44.13;;;;;;;;;;4995487;28;20174;-87
2020/12/13 13:56:49;;;;;;;91.47;46.43;;;;;;;;;;4995348;28;20170;-87
2020/12/13 13:59:20;;;;;;;93.10;43.90;;;;;;;;;;4995475;28;20165;-87
2020/12/13 14:01:51;;;;;;;97.53;45.50;;;;;;;;;;4996265;28;20222;-87
2020/12/13 14:04:21;;;;;;;84.93;41.87;;;;;;;;;;4995280;28;20237;-87
2020/12/13 14:09:30;;;;;;;76.23;43.43;;;;;;;;;;4996851;28;20198;-87
2020/12/13 14:12:01;;;;;;;82.93;43.30;;;;;;;;;;4995907;28;20195;-87
2020/12/13 14:14:30;;;;;;;89.20;47.87;;;;;;;;;;4995288;28;20194;-87
2020/12/13 14:16:58;;;;;;;89.60;46.37;;;;;;;;;;4995374;28;20180;-87
2020/12/13 14:19:27;;;;;;;82.93;45.87;;;;;;;;;;4995565;28;20258;-88
2020/12/13 14:21:56;;;;;;;78.67;43.47;;;;;;;;;;4995309;28;20206;-87
2020/12/13 14:24:23;;;;;;;80.73;45.07;;;;;;;;;;4995702;28;20185;-88
2020/12/13 14:26:51;;;;;;;90.83;46.47;;;;;;;;;;4995071;28;20662;-87
2020/12/13 14:29:19;;;;;;;85.77;45.50;;;;;;;;;;4995281;28;20179;-87
2020/12/13 14:31:50;;;;;;;84.30;47.67;;;;;;;;;;4994754;28;20724;-87
2020/12/13 14:34:16;;;;;;;91.27;49.23;;;;;;;;;;4994953;28;20175;-87
2020/12/13 14:36:43;;;;;;;80.57;46.47;;;;;;;;;;4995011;28;20263;-88
2020/12/13 14:39:11;;;;;;;81.60;45.03;;;;;;;;;;4994865;28;20179;-87
2020/12/13 14:41:39;;;;;;;81.50;45.90;;;;;;;;;;4995907;28;20199;-87
2020/12/13 14:44:10;;;;;;;77.40;43.77;;;;;;;;;;4994686;28;20218;-87
2020/12/13 14:46:39;;;;;;;85.63;45.43;;;;;;;;;;4995847;28;20176;-87
2020/12/13 14:49:14;;;;;;;80.50;42.73;;;;;;;;;;4994357;28;20186;-87
2020/12/13 14:51:46;;;;;;;70.97;41.97;;;;;;;;;;4994472;28;20191;-87
2020/12/13 14:54:15;;;;;;;72.77;43.77;;;;;;;;;;4994252;28;20175;-87
2020/12/13 14:56:44;;;;;;;83.93;42.27;;;;;;;;;;4994232;28;20561;-87
2020/12/13 14:59:16;;;;;;;81.27;44.30;;;;;;;;;;4993936;28;20176;-87
2020/12/13 15:01:51;;;;;;;76.43;43.43;;;;;;;;;;4995236;28;20195;-87